sensor_id;sensor_type;location;lat;lon;timestamp;P1;durP1;ratioP1;P2;durP2;ratioP2
28834;SDS011;15969;51.536;11.884;2023-07-31T00:02:05;4.10;;;1.70;;
28834;SDS011;15969;51.536;11.884;2023-07-31T00:04:31;4.23;;;1.87;;
28834;SDS011;15969;51.536;11.884;2023-07-31T00:06:57;4.23;;;1.70;;
28834;SDS011;15969;51.536;11.884;2023-07-31T00:09:22;4.17;;;1.70;;
28834;SDS011;15969;51.536;11.884;2023-07-31T00:11:48;2.53;;;1.80;;
28834;SDS011;15969;51.536;11.884;2023-07-31T00:14:14;5.70;;;2.10;;
28834;SDS011;15969;51.536;11.884;2023-07-31T00:16:39;4.23;;;2.20;;
28834;SDS011;15969;51.536;11.884;2023-07-31T00:19:05;6.50;;;2.20;;
28834;SDS011;15969;51.536;11.884;2023-07-31T00:21:31;5.10;;;1.73;;
28834;SDS011;15969;51.536;11.884;2023-07-31T00:23:56;4.23;;;1.77;;
28834;SDS011;15969;51.536;11.884;2023-07-31T00:26:22;3.77;;;1.90;;
28834;SDS011;15969;51.536;11.884;2023-07-31T00:28:48;3.67;;;1.43;;
28834;SDS011;15969;51.536;11.884;2023-07-31T00:31:13;4.27;;;2.20;;
28834;SDS011;15969;51.536;11.884;2023-07-31T00:33:39;3.27;;;1.73;;
28834;SDS011;15969;51.536;11.884;2023-07-31T00:36:05;3.60;;;1.60;;
28834;SDS011;15969;51.536;11.884;2023-07-31T00:38:30;3.77;;;1.90;;
28834;SDS011;15969;51.536;11.884;2023-07-31T00:40:56;2.37;;;1.60;;
28834;SDS011;15969;51.536;11.884;2023-07-31T00:43:22;4.70;;;1.70;;
28834;SDS011;15969;51.536;11.884;2023-07-31T00:45:47;4.53;;;2.30;;
28834;SDS011;15969;51.536;11.884;2023-07-31T00:48:13;4.77;;;1.80;;
28834;SDS011;15969;51.536;11.884;2023-07-31T00:50:39;3.03;;;1.80;;
28834;SDS011;15969;51.536;11.884;2023-07-31T00:53:05;4.27;;;1.83;;
28834;SDS011;15969;51.536;11.884;2023-07-31T00:55:31;2.63;;;1.43;;
28834;SDS011;15969;51.536;11.884;2023-07-31T00:57:56;3.50;;;1.57;;
28834;SDS011;15969;51.536;11.884;2023-07-31T01:00:22;3.93;;;1.60;;
28834;SDS011;15969;51.536;11.884;2023-07-31T01:02:49;2.67;;;1.50;;
28834;SDS011;15969;51.536;11.884;2023-07-31T01:05:15;6.63;;;1.87;;
28834;SDS011;15969;51.536;11.884;2023-07-31T01:10:50;6.40;;;1.93;;
28834;SDS011;15969;51.536;11.884;2023-07-31T01:13:16;3.33;;;1.87;;
28834;SDS011;15969;51.536;11.884;2023-07-31T01:15:42;5.13;;;1.63;;
28834;SDS011;15969;51.536;11.884;2023-07-31T01:18:08;5.53;;;2.00;;
28834;SDS011;15969;51.536;11.884;2023-07-31T01:20:34;6.00;;;2.00;;
28834;SDS011;15969;51.536;11.884;2023-07-31T01:28:46;4.67;;;1.83;;
28834;SDS011;15969;51.536;11.884;2023-07-31T01:31:27;3.33;;;1.70;;
28834;SDS011;15969;51.536;11.884;2023-07-31T01:33:56;4.87;;;1.83;;
28834;SDS011;15969;51.536;11.884;2023-07-31T01:36:26;3.50;;;1.37;;
28834;SDS011;15969;51.536;11.884;2023-07-31T01:38:57;4.23;;;1.37;;
28834;SDS011;15969;51.536;11.884;2023-07-31T01:41:26;2.67;;;1.50;;
28834;SDS011;15969;51.536;11.884;2023-07-31T01:43:52;2.70;;;1.20;;
28834;SDS011;15969;51.536;11.884;2023-07-31T01:46:18;3.13;;;1.40;;
28834;SDS011;15969;51.536;11.884;2023-07-31T01:48:43;3.20;;;1.57;;
28834;SDS011;15969;51.536;11.884;2023-07-31T01:51:09;3.73;;;1.50;;
28834;SDS011;15969;51.536;11.884;2023-07-31T01:53:35;3.83;;;1.47;;
28834;SDS011;15969;51.536;11.884;2023-07-31T01:56:00;2.93;;;1.53;;
28834;SDS011;15969;51.536;11.884;2023-07-31T01:58:26;3.90;;;1.83;;
28834;SDS011;15969;51.536;11.884;2023-07-31T02:00:52;4.53;;;1.77;;
28834;SDS011;15969;51.536;11.884;2023-07-31T02:03:17;3.60;;;1.53;;
28834;SDS011;15969;51.536;11.884;2023-07-31T02:05:44;3.40;;;1.87;;
28834;SDS011;15969;51.536;11.884;2023-07-31T02:08:10;5.93;;;2.90;;
28834;SDS011;15969;51.536;11.884;2023-07-31T02:10:36;4.00;;;2.00;;
28834;SDS011;15969;51.536;11.884;2023-07-31T02:13:02;4.63;;;1.73;;
28834;SDS011;15969;51.536;11.884;2023-07-31T02:15:29;3.93;;;1.57;;
28834;SDS011;15969;51.536;11.884;2023-07-31T02:17:56;3.50;;;2.00;;
28834;SDS011;15969;51.536;11.884;2023-07-31T02:20:22;3.03;;;1.80;;
28834;SDS011;15969;51.536;11.884;2023-07-31T02:22:48;4.40;;;2.43;;
28834;SDS011;15969;51.536;11.884;2023-07-31T02:25:13;7.97;;;1.97;;
28834;SDS011;15969;51.536;11.884;2023-07-31T02:27:39;4.30;;;2.33;;
28834;SDS011;15969;51.536;11.884;2023-07-31T02:30:05;4.67;;;2.20;;
28834;SDS011;15969;51.536;11.884;2023-07-31T02:32:31;5.57;;;1.90;;
28834;SDS011;15969;51.536;11.884;2023-07-31T02:34:57;4.67;;;1.80;;
28834;SDS011;15969;51.536;11.884;2023-07-31T02:37:23;4.33;;;2.20;;
28834;SDS011;15969;51.536;11.884;2023-07-31T02:39:49;5.60;;;2.17;;
28834;SDS011;15969;51.536;11.884;2023-07-31T02:42:14;3.07;;;2.00;;
28834;SDS011;15969;51.536;11.884;2023-07-31T02:44:40;5.40;;;2.13;;
28834;SDS011;15969;51.536;11.884;2023-07-31T02:47:06;5.07;;;2.00;;
28834;SDS011;15969;51.536;11.884;2023-07-31T02:49:31;6.43;;;2.00;;
28834;SDS011;15969;51.536;11.884;2023-07-31T02:51:57;5.63;;;2.03;;
28834;SDS011;15969;51.536;11.884;2023-07-31T02:54:23;3.57;;;1.87;;
28834;SDS011;15969;51.536;11.884;2023-07-31T02:56:49;4.47;;;1.80;;
28834;SDS011;15969;51.536;11.884;2023-07-31T02:59:14;6.17;;;2.00;;
28834;SDS011;15969;51.536;11.884;2023-07-31T03:01:43;4.73;;;1.80;;
28834;SDS011;15969;51.536;11.884;2023-07-31T03:04:08;4.93;;;1.80;;
28834;SDS011;15969;51.536;11.884;2023-07-31T03:06:34;5.33;;;1.90;;
28834;SDS011;15969;51.536;11.884;2023-07-31T03:09:00;4.43;;;1.90;;
28834;SDS011;15969;51.536;11.884;2023-07-31T03:11:25;2.90;;;1.77;;
28834;SDS011;15969;51.536;11.884;2023-07-31T03:13:51;4.03;;;1.53;;
28834;SDS011;15969;51.536;11.884;2023-07-31T03:16:17;4.93;;;2.40;;
28834;SDS011;15969;51.536;11.884;2023-07-31T03:18:42;4.77;;;1.90;;
28834;SDS011;15969;51.536;11.884;2023-07-31T03:21:08;5.00;;;1.93;;
28834;SDS011;15969;51.536;11.884;2023-07-31T03:23:34;6.70;;;2.10;;
28834;SDS011;15969;51.536;11.884;2023-07-31T03:26:00;3.67;;;1.90;;
28834;SDS011;15969;51.536;11.884;2023-07-31T03:28:30;3.90;;;2.07;;
28834;SDS011;15969;51.536;11.884;2023-07-31T03:30:56;4.23;;;1.70;;
28834;SDS011;15969;51.536;11.884;2023-07-31T03:33:21;4.40;;;1.90;;
28834;SDS011;15969;51.536;11.884;2023-07-31T03:35:47;3.87;;;1.90;;
28834;SDS011;15969;51.536;11.884;2023-07-31T03:38:13;5.83;;;1.80;;
28834;SDS011;15969;51.536;11.884;2023-07-31T03:40:39;4.37;;;2.10;;
28834;SDS011;15969;51.536;11.884;2023-07-31T03:43:05;3.73;;;2.07;;
28834;SDS011;15969;51.536;11.884;2023-07-31T03:45:30;4.57;;;1.77;;
28834;SDS011;15969;51.536;11.884;2023-07-31T03:47:56;3.73;;;1.60;;
28834;SDS011;15969;51.536;11.884;2023-07-31T03:50:22;7.10;;;2.20;;
28834;SDS011;15969;51.536;11.884;2023-07-31T03:52:48;6.03;;;2.00;;
28834;SDS011;15969;51.536;11.884;2023-07-31T03:55:13;5.93;;;2.27;;
28834;SDS011;15969;51.536;11.884;2023-07-31T03:57:39;4.00;;;2.03;;
28834;SDS011;15969;51.536;11.884;2023-07-31T04:00:05;3.40;;;2.10;;
28834;SDS011;15969;51.536;11.884;2023-07-31T04:02:31;6.13;;;2.10;;
28834;SDS011;15969;51.536;11.884;2023-07-31T04:04:57;7.57;;;2.40;;
28834;SDS011;15969;51.536;11.884;2023-07-31T04:07:23;6.40;;;2.17;;
28834;SDS011;15969;51.536;11.884;2023-07-31T04:09:48;5.40;;;2.43;;
28834;SDS011;15969;51.536;11.884;2023-07-31T04:12:14;2.93;;;1.70;;
28834;SDS011;15969;51.536;11.884;2023-07-31T04:14:40;4.63;;;2.07;;
28834;SDS011;15969;51.536;11.884;2023-07-31T04:17:06;3.93;;;2.10;;
28834;SDS011;15969;51.536;11.884;2023-07-31T04:19:31;4.57;;;2.40;;
28834;SDS011;15969;51.536;11.884;2023-07-31T04:21:57;4.60;;;2.67;;
28834;SDS011;15969;51.536;11.884;2023-07-31T04:24:22;4.13;;;2.23;;
28834;SDS011;15969;51.536;11.884;2023-07-31T04:26:51;9.07;;;2.50;;
28834;SDS011;15969;51.536;11.884;2023-07-31T04:29:18;3.93;;;2.40;;
28834;SDS011;15969;51.536;11.884;2023-07-31T04:31:44;7.37;;;2.87;;
28834;SDS011;15969;51.536;11.884;2023-07-31T04:34:10;8.43;;;2.80;;
28834;SDS011;15969;51.536;11.884;2023-07-31T04:36:36;3.17;;;1.80;;
28834;SDS011;15969;51.536;11.884;2023-07-31T04:39:02;6.20;;;2.43;;
28834;SDS011;15969;51.536;11.884;2023-07-31T04:41:28;3.83;;;2.60;;
28834;SDS011;15969;51.536;11.884;2023-07-31T04:43:54;5.27;;;2.40;;
28834;SDS011;15969;51.536;11.884;2023-07-31T04:46:20;5.80;;;2.50;;
28834;SDS011;15969;51.536;11.884;2023-07-31T04:48:45;5.00;;;2.30;;
28834;SDS011;15969;51.536;11.884;2023-07-31T04:51:11;5.43;;;2.90;;
28834;SDS011;15969;51.536;11.884;2023-07-31T04:53:37;4.60;;;2.50;;
28834;SDS011;15969;51.536;11.884;2023-07-31T04:56:03;8.20;;;2.50;;
28834;SDS011;15969;51.536;11.884;2023-07-31T04:58:28;3.57;;;2.40;;
28834;SDS011;15969;51.536;11.884;2023-07-31T05:00:54;5.43;;;2.47;;
28834;SDS011;15969;51.536;11.884;2023-07-31T05:03:20;4.90;;;2.40;;
28834;SDS011;15969;51.536;11.884;2023-07-31T05:05:46;5.90;;;2.90;;
28834;SDS011;15969;51.536;11.884;2023-07-31T05:08:11;4.43;;;2.60;;
28834;SDS011;15969;51.536;11.884;2023-07-31T05:10:37;4.50;;;2.73;;
28834;SDS011;15969;51.536;11.884;2023-07-31T05:13:03;8.77;;;2.60;;
28834;SDS011;15969;51.536;11.884;2023-07-31T05:15:28;6.03;;;3.03;;
28834;SDS011;15969;51.536;11.884;2023-07-31T05:17:54;6.43;;;2.80;;
28834;SDS011;15969;51.536;11.884;2023-07-31T05:20:20;7.83;;;2.30;;
28834;SDS011;15969;51.536;11.884;2023-07-31T05:22:46;5.87;;;2.77;;
28834;SDS011;15969;51.536;11.884;2023-07-31T05:25:12;5.10;;;2.43;;
28834;SDS011;15969;51.536;11.884;2023-07-31T05:27:38;5.30;;;2.80;;
28834;SDS011;15969;51.536;11.884;2023-07-31T05:30:04;5.87;;;2.73;;
28834;SDS011;15969;51.536;11.884;2023-07-31T05:32:30;6.93;;;2.73;;
28834;SDS011;15969;51.536;11.884;2023-07-31T05:34:56;7.33;;;2.80;;
28834;SDS011;15969;51.536;11.884;2023-07-31T05:37:22;4.47;;;2.27;;
28834;SDS011;15969;51.536;11.884;2023-07-31T05:39:48;5.93;;;2.53;;
28834;SDS011;15969;51.536;11.884;2023-07-31T05:42:14;6.23;;;2.60;;
28834;SDS011;15969;51.536;11.884;2023-07-31T05:44:40;5.47;;;3.07;;
28834;SDS011;15969;51.536;11.884;2023-07-31T05:47:05;3.90;;;2.30;;
28834;SDS011;15969;51.536;11.884;2023-07-31T05:49:31;6.03;;;2.83;;
28834;SDS011;15969;51.536;11.884;2023-07-31T05:51:57;7.13;;;2.77;;
28834;SDS011;15969;51.536;11.884;2023-07-31T05:54:23;6.93;;;2.70;;
28834;SDS011;15969;51.536;11.884;2023-07-31T05:56:48;5.00;;;2.43;;
28834;SDS011;15969;51.536;11.884;2023-07-31T05:59:15;5.70;;;2.60;;
28834;SDS011;15969;51.536;11.884;2023-07-31T06:01:41;4.57;;;2.30;;
28834;SDS011;15969;51.536;11.884;2023-07-31T06:04:07;6.00;;;2.73;;
28834;SDS011;15969;51.536;11.884;2023-07-31T06:06:33;4.60;;;2.83;;
28834;SDS011;15969;51.536;11.884;2023-07-31T06:08:59;5.10;;;2.87;;
28834;SDS011;15969;51.536;11.884;2023-07-31T06:11:24;5.80;;;2.53;;
28834;SDS011;15969;51.536;11.884;2023-07-31T06:13:50;4.27;;;2.47;;
28834;SDS011;15969;51.536;11.884;2023-07-31T06:16:16;4.73;;;2.20;;
28834;SDS011;15969;51.536;11.884;2023-07-31T06:18:42;3.67;;;2.50;;
28834;SDS011;15969;51.536;11.884;2023-07-31T06:21:08;9.47;;;2.60;;
28834;SDS011;15969;51.536;11.884;2023-07-31T06:23:35;4.97;;;3.10;;
28834;SDS011;15969;51.536;11.884;2023-07-31T06:26:00;4.83;;;2.40;;
28834;SDS011;15969;51.536;11.884;2023-07-31T06:28:29;4.77;;;2.60;;
28834;SDS011;15969;51.536;11.884;2023-07-31T06:30:56;4.07;;;2.37;;
28834;SDS011;15969;51.536;11.884;2023-07-31T06:33:23;3.07;;;2.53;;
28834;SDS011;15969;51.536;11.884;2023-07-31T06:35:50;4.37;;;2.20;;
28834;SDS011;15969;51.536;11.884;2023-07-31T06:38:16;4.80;;;2.43;;
28834;SDS011;15969;51.536;11.884;2023-07-31T06:40:46;6.63;;;2.70;;
28834;SDS011;15969;51.536;11.884;2023-07-31T06:43:12;3.27;;;2.50;;
28834;SDS011;15969;51.536;11.884;2023-07-31T06:45:38;7.00;;;2.27;;
28834;SDS011;15969;51.536;11.884;2023-07-31T06:48:03;6.23;;;2.40;;
28834;SDS011;15969;51.536;11.884;2023-07-31T06:50:30;6.10;;;2.80;;
28834;SDS011;15969;51.536;11.884;2023-07-31T06:52:58;3.60;;;2.43;;
28834;SDS011;15969;51.536;11.884;2023-07-31T06:55:25;6.13;;;2.60;;
28834;SDS011;15969;51.536;11.884;2023-07-31T06:57:52;3.87;;;2.60;;
28834;SDS011;15969;51.536;11.884;2023-07-31T07:00:19;3.43;;;2.30;;
28834;SDS011;15969;51.536;11.884;2023-07-31T07:02:47;5.57;;;2.40;;
28834;SDS011;15969;51.536;11.884;2023-07-31T07:05:13;6.10;;;2.83;;
28834;SDS011;15969;51.536;11.884;2023-07-31T07:07:40;6.40;;;3.07;;
28834;SDS011;15969;51.536;11.884;2023-07-31T07:10:06;3.83;;;2.73;;
28834;SDS011;15969;51.536;11.884;2023-07-31T07:12:32;4.80;;;2.50;;
28834;SDS011;15969;51.536;11.884;2023-07-31T07:14:58;3.80;;;2.77;;
28834;SDS011;15969;51.536;11.884;2023-07-31T07:17:25;8.10;;;2.47;;
28834;SDS011;15969;51.536;11.884;2023-07-31T07:19:53;3.60;;;2.03;;
28834;SDS011;15969;51.536;11.884;2023-07-31T07:22:19;4.30;;;2.43;;
28834;SDS011;15969;51.536;11.884;2023-07-31T07:24:44;3.70;;;2.47;;
28834;SDS011;15969;51.536;11.884;2023-07-31T07:27:10;4.67;;;2.83;;
28834;SDS011;15969;51.536;11.884;2023-07-31T07:29:37;4.57;;;2.10;;
28834;SDS011;15969;51.536;11.884;2023-07-31T07:32:03;7.63;;;2.53;;
28834;SDS011;15969;51.536;11.884;2023-07-31T07:34:30;5.03;;;2.13;;
28834;SDS011;15969;51.536;11.884;2023-07-31T07:36:56;5.03;;;2.40;;
28834;SDS011;15969;51.536;11.884;2023-07-31T07:39:21;3.63;;;2.27;;
28834;SDS011;15969;51.536;11.884;2023-07-31T07:41:47;6.47;;;2.37;;
28834;SDS011;15969;51.536;11.884;2023-07-31T07:44:13;4.73;;;2.43;;
28834;SDS011;15969;51.536;11.884;2023-07-31T07:46:39;3.90;;;2.10;;
28834;SDS011;15969;51.536;11.884;2023-07-31T07:49:05;3.00;;;2.20;;
28834;SDS011;15969;51.536;11.884;2023-07-31T07:51:31;4.77;;;2.60;;
28834;SDS011;15969;51.536;11.884;2023-07-31T07:53:57;3.13;;;2.30;;
28834;SDS011;15969;51.536;11.884;2023-07-31T07:56:25;3.20;;;2.10;;
28834;SDS011;15969;51.536;11.884;2023-07-31T07:58:52;6.13;;;2.37;;
28834;SDS011;15969;51.536;11.884;2023-07-31T08:01:18;5.30;;;2.23;;
28834;SDS011;15969;51.536;11.884;2023-07-31T08:03:44;5.73;;;2.57;;
28834;SDS011;15969;51.536;11.884;2023-07-31T08:06:11;7.30;;;2.97;;
28834;SDS011;15969;51.536;11.884;2023-07-31T08:08:37;4.90;;;2.80;;
28834;SDS011;15969;51.536;11.884;2023-07-31T08:11:03;6.97;;;2.73;;
28834;SDS011;15969;51.536;11.884;2023-07-31T08:13:29;3.97;;;2.60;;
28834;SDS011;15969;51.536;11.884;2023-07-31T08:15:54;5.70;;;2.77;;
28834;SDS011;15969;51.536;11.884;2023-07-31T08:18:20;4.47;;;2.40;;
28834;SDS011;15969;51.536;11.884;2023-07-31T08:20:46;3.63;;;1.87;;
28834;SDS011;15969;51.536;11.884;2023-07-31T08:23:12;5.17;;;2.40;;
28834;SDS011;15969;51.536;11.884;2023-07-31T08:25:38;4.83;;;2.50;;
28834;SDS011;15969;51.536;11.884;2023-07-31T08:28:04;4.80;;;2.73;;
28834;SDS011;15969;51.536;11.884;2023-07-31T08:30:31;6.63;;;2.50;;
28834;SDS011;15969;51.536;11.884;2023-07-31T08:32:58;5.37;;;2.67;;
28834;SDS011;15969;51.536;11.884;2023-07-31T08:35:24;4.17;;;2.77;;
28834;SDS011;15969;51.536;11.884;2023-07-31T08:37:51;5.33;;;2.90;;
28834;SDS011;15969;51.536;11.884;2023-07-31T08:40:16;7.43;;;2.67;;
28834;SDS011;15969;51.536;11.884;2023-07-31T08:42:46;5.67;;;2.63;;
28834;SDS011;15969;51.536;11.884;2023-07-31T08:45:16;4.37;;;2.40;;
28834;SDS011;15969;51.536;11.884;2023-07-31T08:47:44;4.03;;;2.50;;
28834;SDS011;15969;51.536;11.884;2023-07-31T08:50:13;3.87;;;2.17;;
28834;SDS011;15969;51.536;11.884;2023-07-31T08:52:42;4.03;;;2.60;;
28834;SDS011;15969;51.536;11.884;2023-07-31T08:55:08;4.03;;;2.40;;
28834;SDS011;15969;51.536;11.884;2023-07-31T08:57:35;2.80;;;2.27;;
28834;SDS011;15969;51.536;11.884;2023-07-31T09:00:03;5.80;;;2.30;;
28834;SDS011;15969;51.536;11.884;2023-07-31T09:02:42;2.93;;;2.40;;
28834;SDS011;15969;51.536;11.884;2023-07-31T09:05:14;5.50;;;2.30;;
28834;SDS011;15969;51.536;11.884;2023-07-31T09:07:40;4.77;;;3.20;;
28834;SDS011;15969;51.536;11.884;2023-07-31T09:10:11;5.20;;;2.63;;
28834;SDS011;15969;51.536;11.884;2023-07-31T09:12:37;5.20;;;2.87;;
28834;SDS011;15969;51.536;11.884;2023-07-31T09:15:04;8.80;;;2.80;;
28834;SDS011;15969;51.536;11.884;2023-07-31T09:17:31;3.77;;;2.40;;
28834;SDS011;15969;51.536;11.884;2023-07-31T09:20:12;4.33;;;2.70;;
28834;SDS011;15969;51.536;11.884;2023-07-31T09:22:45;4.40;;;3.00;;
28834;SDS011;15969;51.536;11.884;2023-07-31T09:25:19;5.77;;;2.97;;
28834;SDS011;15969;51.536;11.884;2023-07-31T09:27:54;5.90;;;3.10;;
28834;SDS011;15969;51.536;11.884;2023-07-31T09:30:23;5.37;;;2.70;;
28834;SDS011;15969;51.536;11.884;2023-07-31T09:32:50;5.07;;;2.60;;
28834;SDS011;15969;51.536;11.884;2023-07-31T09:35:32;6.27;;;2.80;;
28834;SDS011;15969;51.536;11.884;2023-07-31T09:38:00;3.93;;;2.90;;
28834;SDS011;15969;51.536;11.884;2023-07-31T09:40:33;6.97;;;2.80;;
28834;SDS011;15969;51.536;11.884;2023-07-31T09:43:01;3.53;;;2.70;;
28834;SDS011;15969;51.536;11.884;2023-07-31T09:45:39;5.20;;;2.90;;
28834;SDS011;15969;51.536;11.884;2023-07-31T09:48:09;4.13;;;2.70;;
28834;SDS011;15969;51.536;11.884;2023-07-31T09:50:38;6.27;;;2.63;;
28834;SDS011;15969;51.536;11.884;2023-07-31T09:53:06;6.67;;;3.07;;
28834;SDS011;15969;51.536;11.884;2023-07-31T09:55:33;4.77;;;3.20;;
28834;SDS011;15969;51.536;11.884;2023-07-31T09:58:03;4.03;;;2.73;;
28834;SDS011;15969;51.536;11.884;2023-07-31T10:00:31;4.70;;;2.83;;
28834;SDS011;15969;51.536;11.884;2023-07-31T10:03:01;7.17;;;2.97;;
28834;SDS011;15969;51.536;11.884;2023-07-31T10:05:32;3.90;;;3.00;;
28834;SDS011;15969;51.536;11.884;2023-07-31T10:08:01;4.47;;;2.97;;
28834;SDS011;15969;51.536;11.884;2023-07-31T10:10:28;5.10;;;2.60;;
28834;SDS011;15969;51.536;11.884;2023-07-31T10:12:54;5.80;;;3.00;;
28834;SDS011;15969;51.536;11.884;2023-07-31T10:15:22;5.37;;;3.07;;
28834;SDS011;15969;51.536;11.884;2023-07-31T10:17:49;4.67;;;3.17;;
28834;SDS011;15969;51.536;11.884;2023-07-31T10:20:16;3.53;;;2.73;;
28834;SDS011;15969;51.536;11.884;2023-07-31T10:22:42;3.80;;;2.60;;
28834;SDS011;15969;51.536;11.884;2023-07-31T10:25:11;6.47;;;2.90;;
28834;SDS011;15969;51.536;11.884;2023-07-31T10:27:38;3.77;;;2.70;;
28834;SDS011;15969;51.536;11.884;2023-07-31T10:30:04;6.40;;;3.27;;
28834;SDS011;15969;51.536;11.884;2023-07-31T10:32:37;3.90;;;3.10;;
28834;SDS011;15969;51.536;11.884;2023-07-31T10:35:06;4.17;;;2.67;;
28834;SDS011;15969;51.536;11.884;2023-07-31T10:37:38;4.20;;;2.70;;
28834;SDS011;15969;51.536;11.884;2023-07-31T10:40:11;4.20;;;3.10;;
28834;SDS011;15969;51.536;11.884;2023-07-31T10:42:49;3.77;;;2.70;;
28834;SDS011;15969;51.536;11.884;2023-07-31T10:45:34;4.30;;;2.90;;
28834;SDS011;15969;51.536;11.884;2023-07-31T10:48:03;4.13;;;2.97;;
28834;SDS011;15969;51.536;11.884;2023-07-31T10:50:32;4.70;;;3.07;;
28834;SDS011;15969;51.536;11.884;2023-07-31T10:53:02;6.00;;;2.60;;
28834;SDS011;15969;51.536;11.884;2023-07-31T10:55:32;6.67;;;3.20;;
28834;SDS011;15969;51.536;11.884;2023-07-31T10:58:12;3.67;;;2.70;;
28834;SDS011;15969;51.536;11.884;2023-07-31T11:00:42;6.23;;;3.33;;
28834;SDS011;15969;51.536;11.884;2023-07-31T11:03:10;4.10;;;3.03;;
28834;SDS011;15969;51.536;11.884;2023-07-31T11:05:53;5.77;;;3.13;;
28834;SDS011;15969;51.536;11.884;2023-07-31T11:08:25;4.13;;;3.03;;
28834;SDS011;15969;51.536;11.884;2023-07-31T11:13:44;4.73;;;3.00;;
28834;SDS011;15969;51.536;11.884;2023-07-31T11:16:13;5.13;;;2.90;;
28834;SDS011;15969;51.536;11.884;2023-07-31T11:18:42;7.60;;;2.70;;
28834;SDS011;15969;51.536;11.884;2023-07-31T11:21:13;6.43;;;3.20;;
28834;SDS011;15969;51.536;11.884;2023-07-31T11:23:40;5.17;;;3.10;;
28834;SDS011;15969;51.536;11.884;2023-07-31T11:26:07;5.17;;;3.27;;
28834;SDS011;15969;51.536;11.884;2023-07-31T11:28:33;5.67;;;3.10;;
28834;SDS011;15969;51.536;11.884;2023-07-31T11:31:00;5.20;;;3.00;;
28834;SDS011;15969;51.536;11.884;2023-07-31T11:33:27;6.17;;;3.50;;
28834;SDS011;15969;51.536;11.884;2023-07-31T11:35:53;5.53;;;3.27;;
28834;SDS011;15969;51.536;11.884;2023-07-31T11:38:25;3.23;;;2.70;;
28834;SDS011;15969;51.536;11.884;2023-07-31T11:40:53;4.30;;;2.97;;
28834;SDS011;15969;51.536;11.884;2023-07-31T11:43:21;7.00;;;3.03;;
28834;SDS011;15969;51.536;11.884;2023-07-31T11:45:49;6.27;;;3.23;;
28834;SDS011;15969;51.536;11.884;2023-07-31T11:48:30;3.77;;;2.90;;
28834;SDS011;15969;51.536;11.884;2023-07-31T11:50:59;5.20;;;3.00;;
28834;SDS011;15969;51.536;11.884;2023-07-31T11:56:10;4.63;;;2.73;;
28834;SDS011;15969;51.536;11.884;2023-07-31T11:58:39;5.43;;;3.20;;
28834;SDS011;15969;51.536;11.884;2023-07-31T12:01:06;11.17;;;3.77;;
28834;SDS011;15969;51.536;11.884;2023-07-31T12:03:32;6.10;;;3.40;;
28834;SDS011;15969;51.536;11.884;2023-07-31T12:05:59;4.83;;;3.60;;
28834;SDS011;15969;51.536;11.884;2023-07-31T12:08:25;5.97;;;3.40;;
28834;SDS011;15969;51.536;11.884;2023-07-31T12:10:51;6.17;;;3.20;;
28834;SDS011;15969;51.536;11.884;2023-07-31T12:13:26;4.27;;;3.33;;
28834;SDS011;15969;51.536;11.884;2023-07-31T12:15:55;8.93;;;3.30;;
28834;SDS011;15969;51.536;11.884;2023-07-31T12:18:23;7.80;;;3.50;;
28834;SDS011;15969;51.536;11.884;2023-07-31T12:20:55;12.00;;;3.87;;
28834;SDS011;15969;51.536;11.884;2023-07-31T12:23:24;7.10;;;3.20;;
28834;SDS011;15969;51.536;11.884;2023-07-31T12:26:06;3.90;;;2.93;;
28834;SDS011;15969;51.536;11.884;2023-07-31T12:28:47;8.70;;;3.50;;
28834;SDS011;15969;51.536;11.884;2023-07-31T12:31:15;6.50;;;2.70;;
28834;SDS011;15969;51.536;11.884;2023-07-31T12:33:44;5.10;;;3.20;;
28834;SDS011;15969;51.536;11.884;2023-07-31T12:36:15;11.73;;;3.63;;
28834;SDS011;15969;51.536;11.884;2023-07-31T12:38:43;8.97;;;3.00;;
28834;SDS011;15969;51.536;11.884;2023-07-31T12:41:11;6.47;;;3.50;;
28834;SDS011;15969;51.536;11.884;2023-07-31T12:43:37;7.27;;;3.67;;
28834;SDS011;15969;51.536;11.884;2023-07-31T12:46:05;4.97;;;2.93;;
28834;SDS011;15969;51.536;11.884;2023-07-31T12:48:33;6.00;;;3.50;;
28834;SDS011;15969;51.536;11.884;2023-07-31T12:50:59;4.60;;;3.33;;
28834;SDS011;15969;51.536;11.884;2023-07-31T12:53:25;5.53;;;3.10;;
28834;SDS011;15969;51.536;11.884;2023-07-31T12:55:50;5.43;;;3.17;;
28834;SDS011;15969;51.536;11.884;2023-07-31T12:58:16;5.57;;;2.83;;
28834;SDS011;15969;51.536;11.884;2023-07-31T13:00:42;4.23;;;3.10;;
28834;SDS011;15969;51.536;11.884;2023-07-31T13:03:07;9.77;;;3.00;;
28834;SDS011;15969;51.536;11.884;2023-07-31T13:05:33;8.30;;;3.57;;
28834;SDS011;15969;51.536;11.884;2023-07-31T13:07:59;4.53;;;3.50;;
28834;SDS011;15969;51.536;11.884;2023-07-31T13:10:25;7.37;;;2.90;;
28834;SDS011;15969;51.536;11.884;2023-07-31T13:12:53;6.57;;;3.10;;
28834;SDS011;15969;51.536;11.884;2023-07-31T13:15:19;4.40;;;2.90;;
28834;SDS011;15969;51.536;11.884;2023-07-31T13:17:45;6.73;;;3.07;;
28834;SDS011;15969;51.536;11.884;2023-07-31T13:20:11;7.33;;;3.17;;
28834;SDS011;15969;51.536;11.884;2023-07-31T13:22:37;5.83;;;3.13;;
28834;SDS011;15969;51.536;11.884;2023-07-31T13:25:03;4.87;;;2.80;;
28834;SDS011;15969;51.536;11.884;2023-07-31T13:27:30;4.33;;;3.27;;
28834;SDS011;15969;51.536;11.884;2023-07-31T13:29:56;11.37;;;3.10;;
28834;SDS011;15969;51.536;11.884;2023-07-31T13:32:21;5.80;;;3.37;;
28834;SDS011;15969;51.536;11.884;2023-07-31T13:34:47;5.07;;;2.83;;
28834;SDS011;15969;51.536;11.884;2023-07-31T13:37:14;3.77;;;2.80;;
28834;SDS011;15969;51.536;11.884;2023-07-31T13:39:40;3.80;;;2.70;;
28834;SDS011;15969;51.536;11.884;2023-07-31T13:42:07;6.40;;;2.50;;
28834;SDS011;15969;51.536;11.884;2023-07-31T13:44:36;3.13;;;2.33;;
28834;SDS011;15969;51.536;11.884;2023-07-31T13:47:06;5.20;;;2.30;;
28834;SDS011;15969;51.536;11.884;2023-07-31T13:49:32;5.70;;;2.47;;
28834;SDS011;15969;51.536;11.884;2023-07-31T13:51:59;5.17;;;2.17;;
28834;SDS011;15969;51.536;11.884;2023-07-31T13:54:25;3.47;;;2.03;;
28834;SDS011;15969;51.536;11.884;2023-07-31T13:56:51;5.10;;;1.70;;
28834;SDS011;15969;51.536;11.884;2023-07-31T13:59:17;6.23;;;2.63;;
28834;SDS011;15969;51.536;11.884;2023-07-31T14:01:43;5.33;;;2.10;;
28834;SDS011;15969;51.536;11.884;2023-07-31T14:04:10;4.77;;;2.07;;
28834;SDS011;15969;51.536;11.884;2023-07-31T14:06:36;3.83;;;2.40;;
28834;SDS011;15969;51.536;11.884;2023-07-31T14:09:02;4.80;;;1.83;;
28834;SDS011;15969;51.536;11.884;2023-07-31T14:11:28;4.13;;;2.20;;
28834;SDS011;15969;51.536;11.884;2023-07-31T14:13:55;4.33;;;2.07;;
28834;SDS011;15969;51.536;11.884;2023-07-31T14:16:21;3.10;;;1.73;;
28834;SDS011;15969;51.536;11.884;2023-07-31T14:18:47;5.77;;;2.27;;
28834;SDS011;15969;51.536;11.884;2023-07-31T14:21:13;5.00;;;2.20;;
28834;SDS011;15969;51.536;11.884;2023-07-31T14:23:39;9.33;;;2.90;;
28834;SDS011;15969;51.536;11.884;2023-07-31T14:26:05;11.83;;;2.50;;
28834;SDS011;15969;51.536;11.884;2023-07-31T14:28:31;5.10;;;2.50;;
28834;SDS011;15969;51.536;11.884;2023-07-31T14:30:57;4.50;;;2.37;;
28834;SDS011;15969;51.536;11.884;2023-07-31T14:33:23;5.20;;;2.27;;
28834;SDS011;15969;51.536;11.884;2023-07-31T14:35:49;3.53;;;2.23;;
28834;SDS011;15969;51.536;11.884;2023-07-31T14:38:14;3.83;;;2.70;;
28834;SDS011;15969;51.536;11.884;2023-07-31T14:40:40;5.73;;;2.50;;
28834;SDS011;15969;51.536;11.884;2023-07-31T14:43:06;7.33;;;2.90;;
28834;SDS011;15969;51.536;11.884;2023-07-31T14:45:32;5.53;;;2.30;;
28834;SDS011;15969;51.536;11.884;2023-07-31T14:47:58;4.13;;;2.37;;